createdAt,value
2023-01-12T00:01:38.655Z,78.52
2023-01-12T00:04:06.103Z,78.79
2023-01-12T00:06:33.397Z,78.25
2023-01-12T00:09:02.560Z,78.34
2023-01-12T00:11:29.408Z,78.46
2023-01-12T00:13:55.965Z,78.07
2023-01-12T00:16:37.906Z,78.28
2023-01-12T00:19:12.108Z,77.88
2023-01-12T00:22:00.138Z,76.01
2023-01-12T00:24:29.724Z,77.94
2023-01-12T00:26:58.072Z,78.21
2023-01-12T00:29:25.631Z,78.06
2023-01-12T00:31:57.503Z,77.22
2023-01-12T00:34:25.111Z,77.79
2023-01-12T00:36:51.856Z,77.50
2023-01-12T00:39:18.452Z,77.53
2023-01-12T00:42:03.997Z,77.59
2023-01-12T00:44:49.296Z,77.41
2023-01-12T00:47:16.895Z,77.20
2023-01-12T00:49:43.911Z,77.29
2023-01-12T00:52:24.859Z,77.07
2023-01-12T00:54:55.670Z,77.16
2023-01-12T00:57:22.157Z,76.92
2023-01-12T00:59:48.715Z,77.29
2023-01-12T01:02:15.209Z,77.33
2023-01-12T01:04:41.879Z,76.96
2023-01-12T01:07:08.381Z,77.28
2023-01-12T01:09:34.930Z,77.06
2023-01-12T01:12:01.572Z,77.09
2023-01-12T01:14:28.076Z,77.09
2023-01-12T01:16:54.589Z,77.35
2023-01-12T01:19:21.229Z,77.19
2023-01-12T01:21:47.658Z,77.48
2023-01-12T01:24:14.825Z,77.54
2023-01-12T01:26:42.265Z,77.77
2023-01-12T01:29:09.135Z,77.99
2023-01-12T01:31:35.931Z,78.12
2023-01-12T01:34:02.623Z,78.45
2023-01-12T01:36:30.102Z,78.55
2023-01-12T01:38:56.741Z,78.79
2023-01-12T01:41:29.747Z,78.40
2023-01-12T01:44:03.829Z,77.51
2023-01-12T01:46:51.910Z,77.87
2023-01-12T01:49:56.707Z,78.86
2023-01-12T01:52:34.618Z,78.87
2023-01-12T01:55:12.867Z,78.99
2023-01-12T01:57:48.805Z,79.22
2023-01-12T02:00:15.861Z,79.41
2023-01-12T02:02:45.726Z,79.68
2023-01-12T02:05:20.100Z,79.57
2023-01-12T02:07:49.117Z,79.56
2023-01-12T02:10:17.364Z,79.71
2023-01-12T02:13:03.602Z,79.71
2023-01-12T02:15:58.108Z,79.57
2023-01-12T02:18:30.863Z,79.74
2023-01-12T02:21:20.306Z,78.72
2023-01-12T02:24:01.298Z,79.62
2023-01-12T02:26:46.478Z,79.61
2023-01-12T02:29:30.908Z,79.16
2023-01-12T02:32:07.886Z,78.97
2023-01-12T02:35:09.779Z,79.26
2023-01-12T02:37:43.356Z,79.49
2023-01-12T02:40:18.062Z,78.70
2023-01-12T02:43:15.015Z,78.44
2023-01-12T02:45:50.098Z,78.13
2023-01-12T02:48:21.773Z,79.23
2023-01-12T02:50:57.813Z,79.06
2023-01-12T02:53:30.865Z,78.32
2023-01-12T02:55:59.814Z,77.57
2023-01-12T02:58:29.402Z,79.23
2023-01-12T03:00:59.110Z,79.25
2023-01-12T03:03:26.227Z,79.61
2023-01-12T03:05:56.111Z,79.10
2023-01-12T03:08:27.689Z,79.55
2023-01-12T03:11:14.079Z,79.89
2023-01-12T03:14:05.668Z,79.20
2023-01-12T03:16:34.934Z,79.85
2023-01-12T03:19:14.589Z,79.41
2023-01-12T03:21:55.278Z,79.63
2023-01-12T03:24:30.026Z,79.74
2023-01-12T03:27:03.681Z,79.63
2023-01-12T03:29:30.129Z,80.15
2023-01-12T03:31:57.071Z,80.29
2023-01-12T03:34:23.918Z,80.42
2023-01-12T03:37:13.958Z,80.05
2023-01-12T03:40:06.347Z,80.30
2023-01-12T03:43:03.502Z,80.17
2023-01-12T03:45:30.039Z,80.72
2023-01-12T03:48:07.483Z,80.39
2023-01-12T03:50:58.374Z,80.14
2023-01-12T03:53:25.552Z,80.71
2023-01-12T03:55:57.023Z,80.53
2023-01-12T03:58:24.998Z,80.48
2023-01-12T04:00:52.049Z,80.52
2023-01-12T04:03:18.622Z,80.63
2023-01-12T04:05:45.815Z,80.63
2023-01-12T04:08:14.916Z,80.50
2023-01-12T04:10:41.557Z,80.52
2023-01-12T04:13:08.071Z,80.65
2023-01-12T04:15:37.998Z,80.81
2023-01-12T04:18:05.357Z,80.51
2023-01-12T04:20:31.890Z,80.79
2023-01-12T04:22:58.671Z,80.82
2023-01-12T04:25:25.273Z,80.79
2023-01-12T04:27:59.065Z,80.38
2023-01-12T04:30:27.768Z,80.83
2023-01-12T04:32:56.033Z,80.83
2023-01-12T04:35:24.221Z,80.87
2023-01-12T04:37:51.544Z,80.91
2023-01-12T04:40:19.010Z,80.88
2023-01-12T04:43:01.770Z,80.55
2023-01-12T04:45:33.638Z,80.35
2023-01-12T04:48:05.630Z,80.69
2023-01-12T04:50:32.868Z,80.80
2023-01-12T04:53:02.494Z,80.86
2023-01-12T04:55:29.258Z,80.76
2023-01-12T04:57:57.083Z,80.91
2023-01-12T05:00:24.275Z,80.80
2023-01-12T05:02:53.699Z,80.98
2023-01-12T05:05:20.142Z,80.76
2023-01-12T05:08:05.256Z,80.73
2023-01-12T05:10:31.877Z,80.79
2023-01-12T05:12:58.338Z,80.86
2023-01-12T05:15:24.940Z,80.97
2023-01-12T05:17:52.176Z,80.72
2023-01-12T05:20:18.668Z,80.85
2023-01-12T05:22:45.220Z,80.78
2023-01-12T05:25:11.699Z,80.72
2023-01-12T05:27:38.199Z,80.80
2023-01-12T05:30:05.222Z,80.64
2023-01-12T05:32:38.345Z,80.53
2023-01-12T05:35:06.775Z,80.42
2023-01-12T05:37:33.990Z,80.42
2023-01-12T05:40:00.482Z,80.45
2023-01-12T05:42:45.585Z,80.38
2023-01-12T05:45:12.761Z,80.58
2023-01-12T05:47:39.354Z,80.29
2023-01-12T05:50:06.383Z,80.37
2023-01-12T05:52:32.851Z,80.43
2023-01-12T05:54:59.525Z,80.40
2023-01-12T05:57:25.984Z,80.34
2023-01-12T05:59:52.434Z,80.30
2023-01-12T06:02:21.517Z,80.44
2023-01-12T06:04:48.291Z,80.43
2023-01-12T06:07:16.093Z,80.51
2023-01-12T06:09:42.929Z,80.23
2023-01-12T06:12:30.000Z,80.13
2023-01-12T06:14:56.509Z,80.34
2023-01-12T06:17:23.031Z,80.55
2023-01-12T06:19:49.520Z,80.63
2023-01-12T06:22:16.075Z,80.95
2023-01-12T06:24:42.536Z,80.48
2023-01-12T06:27:09.046Z,81.05
2023-01-12T06:29:35.526Z,81.15
2023-01-12T06:32:02.103Z,81.14
2023-01-12T06:34:34.715Z,81.32
2023-01-12T06:37:02.693Z,81.56
2023-01-12T06:39:42.607Z,81.00
2023-01-12T06:42:28.493Z,81.26
2023-01-12T06:45:00.065Z,81.61
2023-01-12T06:47:33.682Z,81.76
2023-01-12T06:50:00.213Z,81.83
2023-01-12T06:52:27.521Z,81.74
2023-01-12T06:54:54.231Z,82.20
2023-01-12T06:57:20.745Z,81.97
2023-01-12T06:59:47.235Z,82.04
2023-01-12T07:02:15.832Z,82.02
2023-01-12T07:04:42.939Z,82.00
2023-01-12T07:07:10.760Z,82.02
2023-01-12T07:09:37.300Z,82.37
2023-01-12T07:12:04.772Z,82.37
2023-01-12T07:14:31.474Z,82.40
2023-01-12T07:16:58.033Z,82.36
2023-01-12T07:19:24.601Z,82.68
2023-01-12T07:21:51.105Z,82.41
2023-01-12T07:24:17.672Z,82.56
2023-01-12T07:26:44.246Z,82.46
2023-01-12T07:29:13.870Z,82.62
2023-01-12T07:31:40.410Z,82.91
2023-01-12T07:34:06.983Z,82.48
2023-01-12T07:36:36.519Z,82.53
2023-01-12T07:39:03.103Z,82.63
2023-01-12T07:41:48.141Z,82.71
2023-01-12T07:44:14.725Z,82.42
2023-01-12T07:46:41.318Z,82.41
2023-01-12T07:49:07.851Z,82.30
2023-01-12T07:51:34.629Z,82.65
2023-01-12T07:54:01.110Z,82.26
2023-01-12T07:56:27.625Z,82.65
2023-01-12T07:58:54.253Z,82.72
2023-01-12T08:01:20.801Z,82.50
2023-01-12T08:03:47.552Z,82.62
2023-01-12T08:06:14.200Z,82.70
2023-01-12T08:08:41.168Z,82.70
2023-01-12T08:11:10.103Z,82.62
2023-01-12T08:13:38.340Z,82.82
2023-01-12T08:16:13.155Z,82.61
2023-01-12T08:18:49.762Z,82.72
2023-01-12T08:21:20.722Z,82.55
2023-01-12T08:23:54.519Z,82.50
2023-01-12T08:26:25.191Z,82.73
2023-01-12T08:28:56.454Z,82.60
2023-01-12T08:31:25.156Z,82.99
2023-01-12T08:33:53.987Z,82.79
2023-01-12T08:36:22.019Z,83.12
2023-01-12T08:38:48.852Z,83.05
2023-01-12T08:41:34.067Z,83.01
2023-01-12T08:44:02.177Z,82.99
2023-01-12T08:46:40.123Z,82.44
2023-01-12T08:49:11.507Z,82.73
2023-01-12T08:51:41.451Z,83.08
2023-01-12T08:54:10.874Z,82.83
2023-01-12T08:56:37.691Z,82.98
2023-01-12T08:59:04.809Z,82.95
2023-01-12T09:01:31.827Z,82.91
2023-01-12T09:03:59.335Z,82.97
2023-01-12T09:06:45.882Z,82.99
2023-01-12T09:12:07.600Z,83.26
2023-01-12T09:14:38.530Z,83.13
2023-01-12T09:17:06.879Z,83.23
2023-01-12T09:19:33.848Z,83.09
2023-01-12T09:22:00.338Z,83.04
2023-01-12T09:24:27.482Z,83.25
2023-01-12T09:26:53.994Z,83.12
2023-01-12T09:29:20.525Z,83.21
2023-01-12T09:31:47.271Z,83.12
2023-01-12T09:34:13.984Z,83.08
2023-01-12T09:36:41.086Z,83.04
2023-01-12T09:39:10.389Z,82.98
2023-01-12T09:42:02.875Z,83.02
2023-01-12T09:45:01.910Z,82.54
2023-01-12T09:47:39.702Z,82.46
2023-01-12T09:50:11.161Z,83.06
2023-01-12T09:53:00.691Z,82.32
2023-01-12T09:55:41.853Z,82.34
2023-01-12T09:58:42.347Z,82.50
2023-01-12T10:01:24.064Z,82.73
2023-01-12T10:03:55.214Z,83.13
2023-01-12T10:06:21.713Z,83.16
2023-01-12T10:08:51.933Z,83.21
2023-01-12T10:11:39.874Z,82.63
2023-01-12T10:14:27.978Z,82.82
2023-01-12T10:17:45.931Z,82.47
2023-01-12T10:20:39.857Z,82.64
2023-01-12T10:23:09.423Z,82.69
2023-01-12T10:25:44.774Z,82.66
2023-01-12T10:28:24.539Z,82.66
2023-01-12T10:30:53.196Z,83.05
2023-01-12T10:33:29.205Z,82.86
2023-01-12T10:35:58.760Z,82.76
2023-01-12T10:38:36.124Z,83.10
2023-01-12T10:41:10.223Z,82.73
2023-01-12T10:43:38.027Z,83.02
2023-01-12T10:46:14.866Z,82.35
2023-01-12T10:48:44.640Z,82.79
2023-01-12T10:51:34.229Z,82.08
2023-01-12T10:54:10.768Z,82.01
2023-01-12T10:56:54.448Z,82.18
2023-01-12T10:59:25.422Z,82.59
2023-01-12T11:01:53.448Z,82.52
2023-01-12T11:04:23.562Z,82.54
2023-01-12T11:07:05.504Z,81.94
2023-01-12T11:09:32.396Z,82.69
2023-01-12T11:12:23.640Z,81.77
2023-01-12T11:14:57.818Z,82.46
2023-01-12T11:17:44.594Z,82.09
2023-01-12T11:20:40.163Z,82.27
2023-01-12T11:23:29.408Z,82.19
2023-01-12T11:25:57.032Z,82.57
2023-01-12T11:28:42.852Z,82.03
2023-01-12T11:31:21.654Z,82.25
2023-01-12T11:34:21.983Z,81.92
2023-01-12T11:36:55.870Z,82.39
2023-01-12T11:39:28.908Z,82.29
2023-01-12T11:42:14.116Z,81.90
2023-01-12T11:44:52.148Z,82.27
2023-01-12T11:47:28.578Z,82.42
2023-01-12T11:50:05.326Z,82.05
2023-01-12T11:52:32.635Z,83.01
2023-01-12T11:54:59.232Z,83.01
2023-01-12T11:57:31.378Z,83.03
2023-01-12T12:00:06.921Z,82.98
2023-01-12T12:02:38.440Z,82.56
2023-01-12T12:05:29.493Z,82.31
2023-01-12T12:08:11.268Z,82.35
2023-01-12T12:10:57.962Z,82.15
2023-01-12T12:13:52.548Z,82.12
2023-01-12T12:16:51.326Z,82.02
2023-01-12T12:19:43.214Z,81.89
2023-01-12T12:22:37.006Z,82.37
2023-01-12T12:25:28.757Z,82.49
2023-01-12T12:28:07.473Z,82.80
2023-01-12T12:30:40.122Z,82.15
2023-01-12T12:33:40.093Z,82.26
2023-01-12T12:36:30.526Z,82.25
2023-01-12T12:39:09.367Z,82.83
2023-01-12T12:42:12.766Z,82.83
2023-01-12T12:45:03.701Z,82.70
2023-01-12T12:47:51.049Z,81.88
2023-01-12T12:50:22.558Z,82.69
2023-01-12T12:53:01.614Z,82.66
2023-01-12T12:55:28.133Z,82.58
2023-01-12T12:58:02.948Z,82.14
2023-01-12T13:00:42.412Z,82.40
2023-01-12T13:03:09.865Z,82.70
2023-01-12T13:05:40.883Z,82.58
2023-01-12T13:08:37.121Z,82.05
2023-01-12T13:11:03.849Z,82.78
2023-01-12T13:13:36.584Z,82.39
2023-01-12T13:16:18.201Z,82.48
2023-01-12T13:18:50.516Z,82.56
2023-01-12T13:21:56.127Z,82.47
2023-01-12T13:24:39.645Z,82.65
2023-01-12T13:27:43.702Z,81.84
2023-01-12T13:30:28.501Z,82.18
2023-01-12T13:32:54.968Z,82.78
2023-01-12T13:35:33.178Z,82.66
2023-01-12T13:38:27.570Z,82.15
2023-01-12T13:41:13.897Z,82.54
2023-01-12T13:43:43.043Z,82.78
2023-01-12T13:46:21.879Z,82.75
2023-01-12T13:48:54.273Z,82.60
2023-01-12T13:51:22.968Z,83.00
2023-01-12T13:54:04.154Z,82.60
2023-01-12T13:56:31.571Z,82.77
2023-01-12T13:59:01.792Z,82.82
2023-01-12T14:01:33.485Z,82.65
2023-01-12T14:04:16.807Z,82.21
2023-01-12T14:06:56.699Z,83.05
2023-01-12T14:09:29.222Z,82.95
2023-01-12T14:12:28.023Z,82.16
2023-01-12T14:15:50.452Z,81.89
2023-01-12T14:18:22.268Z,82.69
2023-01-12T14:20:50.835Z,82.62
2023-01-12T14:23:33.623Z,82.64
2023-01-12T14:26:25.654Z,81.97
2023-01-12T14:28:52.844Z,82.83
2023-01-12T14:31:31.653Z,82.45
2023-01-12T14:34:02.431Z,82.73
2023-01-12T14:36:35.673Z,82.72
2023-01-12T14:39:09.008Z,82.64
2023-01-12T14:41:54.021Z,82.91
2023-01-12T14:44:42.869Z,82.91
2023-01-12T14:47:10.731Z,83.02
2023-01-12T14:49:38.225Z,83.02
2023-01-12T14:52:15.812Z,82.40
2023-01-12T14:54:42.579Z,82.92
2023-01-12T14:57:34.613Z,82.31
2023-01-12T15:00:02.159Z,83.03
2023-01-12T15:02:30.963Z,83.08
2023-01-12T15:05:00.317Z,82.71
2023-01-12T15:07:32.007Z,82.83
2023-01-12T15:10:01.766Z,82.79
2023-01-12T15:12:28.067Z,82.90
2023-01-12T15:15:20.383Z,81.80
2023-01-12T15:18:06.660Z,82.81
2023-01-12T15:20:54.882Z,82.73
2023-01-12T15:23:52.390Z,82.13
2023-01-12T15:26:20.200Z,82.61
2023-01-12T15:28:48.207Z,82.46
2023-01-12T15:31:32.308Z,81.56
2023-01-12T15:33:58.902Z,82.59
2023-01-12T15:36:25.449Z,82.54
2023-01-12T15:38:52.253Z,82.54
2023-01-12T15:41:46.551Z,82.10
2023-01-12T15:44:18.398Z,82.11
2023-01-12T15:46:44.901Z,82.50
2023-01-12T15:49:13.332Z,82.35
2023-01-12T15:51:40.699Z,82.25
2023-01-12T15:54:09.976Z,82.42
2023-01-12T15:56:36.488Z,82.32
2023-01-12T15:59:03.032Z,82.35
2023-01-12T16:01:37.569Z,81.62
2023-01-12T16:04:40.339Z,82.26
2023-01-12T16:06:52.288Z,82.26
2023-01-12T16:09:19.074Z,82.40
2023-01-12T16:11:45.633Z,82.57
2023-01-12T16:14:13.378Z,82.34
2023-01-12T16:16:40.185Z,82.36
2023-01-12T16:19:08.341Z,82.58
2023-01-12T16:21:35.707Z,82.76
2023-01-12T16:24:02.319Z,82.54
2023-01-12T16:26:30.115Z,82.46
2023-01-12T16:28:57.646Z,82.62
2023-01-12T16:31:24.977Z,82.63
2023-01-12T16:33:51.533Z,82.50
2023-01-12T16:36:18.006Z,82.54
2023-01-12T16:38:44.481Z,82.82
2023-01-12T16:41:14.862Z,82.34
2023-01-12T16:43:41.478Z,82.60
2023-01-12T16:46:08.168Z,82.60
2023-01-12T16:48:35.260Z,82.60
2023-01-12T16:51:01.666Z,82.67
2023-01-12T16:53:28.371Z,82.78
2023-01-12T16:55:54.904Z,82.74
2023-01-12T16:58:21.323Z,82.76
2023-01-12T17:00:48.041Z,82.85
2023-01-12T17:03:14.764Z,82.79
2023-01-12T17:05:42.346Z,82.73
2023-01-12T17:08:09.199Z,82.36
2023-01-12T17:10:36.573Z,82.70
2023-01-12T17:13:03.117Z,82.71
2023-01-12T17:15:29.983Z,82.72
2023-01-12T17:17:56.597Z,82.80
2023-01-12T17:20:23.105Z,82.63
2023-01-12T17:22:50.672Z,82.69
2023-01-12T17:25:17.311Z,82.86
2023-01-12T17:27:43.768Z,82.77
2023-01-12T17:30:11.225Z,82.70
2023-01-12T17:32:37.815Z,82.97
2023-01-12T17:35:07.181Z,82.72
2023-01-12T17:37:33.727Z,82.60
2023-01-12T17:40:00.436Z,82.59
2023-01-12T17:42:45.307Z,82.45
2023-01-12T17:45:12.243Z,82.58
2023-01-12T17:47:38.704Z,82.64
2023-01-12T17:50:05.609Z,82.66
2023-01-12T17:52:32.089Z,82.77
2023-01-12T17:54:58.588Z,82.59
2023-01-12T17:57:26.096Z,82.73
2023-01-12T17:59:52.633Z,82.85
2023-01-12T18:02:19.252Z,82.93
2023-01-12T18:04:46.200Z,82.83
2023-01-12T18:07:12.615Z,83.11
2023-01-12T18:09:39.458Z,82.99
2023-01-12T18:12:06.095Z,83.12
2023-01-12T18:14:32.485Z,83.30
2023-01-12T18:16:58.920Z,83.25
2023-01-12T18:19:25.377Z,83.32
2023-01-12T18:21:51.822Z,83.31
2023-01-12T18:24:18.342Z,83.28
2023-01-12T18:26:44.785Z,83.67
2023-01-12T18:29:11.331Z,83.56
2023-01-12T18:31:37.890Z,83.53
2023-01-12T18:34:05.857Z,83.55
2023-01-12T18:36:39.396Z,83.49
2023-01-12T18:39:08.941Z,83.62
2023-01-12T18:44:06.947Z,83.65
2023-01-12T18:46:53.489Z,83.80
2023-01-12T18:49:24.006Z,83.48
2023-01-12T18:52:09.148Z,83.55
2023-01-12T18:54:48.248Z,83.55
2023-01-12T18:57:19.197Z,83.15
2023-01-12T18:59:47.237Z,83.05
2023-01-12T19:02:14.842Z,83.22
2023-01-12T19:04:50.528Z,83.13
2023-01-12T19:07:27.964Z,83.02
2023-01-12T19:09:54.765Z,83.04
2023-01-12T19:12:21.576Z,83.08
2023-01-12T19:15:06.790Z,83.19
2023-01-12T19:17:33.508Z,83.01
2023-01-12T19:20:02.448Z,83.31
2023-01-12T19:22:47.439Z,83.37
2023-01-12T19:25:34.597Z,83.30
2023-01-12T19:28:19.770Z,83.35
2023-01-12T19:30:47.112Z,83.45
2023-01-12T19:33:14.671Z,83.42
2023-01-12T19:35:42.539Z,83.62
2023-01-12T19:38:09.784Z,83.52
2023-01-12T19:40:45.542Z,83.50
2023-01-12T19:43:14.809Z,83.36
2023-01-12T19:45:43.717Z,83.50
2023-01-12T19:48:11.872Z,83.43
2023-01-12T19:50:40.223Z,83.52
2023-01-12T19:53:09.647Z,83.54
2023-01-12T19:55:36.445Z,83.53
2023-01-12T19:58:08.437Z,83.56
2023-01-12T20:00:37.746Z,83.57
2023-01-12T20:03:04.337Z,83.55
2023-01-12T20:05:30.839Z,83.49
2023-01-12T20:07:57.935Z,83.75
2023-01-12T20:10:24.738Z,83.75
2023-01-12T20:12:52.343Z,83.58
2023-01-12T20:15:20.676Z,83.71
2023-01-12T20:17:48.740Z,83.62
2023-01-12T20:20:16.351Z,83.65
2023-01-12T20:22:43.430Z,83.76
2023-01-12T20:25:10.472Z,83.79
2023-01-12T20:27:38.011Z,83.53
2023-01-12T20:30:06.429Z,83.42
2023-01-12T20:32:38.007Z,83.53
2023-01-12T20:35:05.958Z,83.67
2023-01-12T20:37:33.525Z,83.78
2023-01-12T20:40:00.155Z,83.76
2023-01-12T20:42:27.277Z,83.82
2023-01-12T20:44:53.771Z,83.74
2023-01-12T20:47:20.325Z,83.68
2023-01-12T20:49:47.048Z,83.63
2023-01-12T20:52:14.099Z,83.84
2023-01-12T20:54:40.601Z,83.71
2023-01-12T20:57:10.183Z,83.64
2023-01-12T20:59:37.617Z,83.78
2023-01-12T21:02:04.922Z,83.64
2023-01-12T21:04:32.468Z,84.02
2023-01-12T21:06:59.081Z,83.78
2023-01-12T21:09:25.659Z,83.85
2023-01-12T21:11:52.565Z,83.79
2023-01-12T21:14:19.561Z,83.76
2023-01-12T21:16:46.601Z,83.75
2023-01-12T21:19:13.460Z,83.97
2023-01-12T21:21:40.012Z,83.91
2023-01-12T21:24:06.792Z,83.80
2023-01-12T21:26:33.355Z,83.76
2023-01-12T21:29:00.450Z,83.61
2023-01-12T21:31:27.511Z,83.59
2023-01-12T21:33:54.072Z,83.82
2023-01-12T21:36:20.674Z,83.43
2023-01-12T21:38:56.398Z,82.80
2023-01-12T21:41:22.994Z,83.27
2023-01-12T21:43:53.251Z,83.20
2023-01-12T21:46:22.311Z,83.20
2023-01-12T21:48:48.850Z,83.09
2023-01-12T21:51:17.357Z,83.09
2023-01-12T21:53:43.838Z,83.00
2023-01-12T21:56:12.546Z,83.09
2023-01-12T21:58:39.424Z,83.00
2023-01-12T22:01:11.412Z,82.08
2023-01-12T22:03:38.310Z,82.61
2023-01-12T22:06:10.625Z,82.62
2023-01-12T22:08:38.972Z,82.39
2023-01-12T22:11:14.209Z,82.05
2023-01-12T22:13:41.307Z,82.29
2023-01-12T22:16:13.723Z,81.85
2023-01-12T22:18:44.899Z,82.06
2023-01-12T22:21:12.745Z,82.55
2023-01-12T22:23:39.902Z,82.39
2023-01-12T22:26:09.443Z,82.30
2023-01-12T22:28:38.050Z,82.33
2023-01-12T22:31:14.190Z,81.77
2023-01-12T22:33:44.712Z,82.08
2023-01-12T22:36:11.426Z,82.43
2023-01-12T22:38:38.015Z,82.57
2023-01-12T22:41:09.361Z,82.11
2023-01-12T22:43:42.966Z,82.71
2023-01-12T22:46:24.291Z,81.68
2023-01-12T22:48:56.014Z,82.53
2023-01-12T22:51:27.242Z,82.43
2023-01-12T22:53:55.539Z,82.53
2023-01-12T22:56:22.534Z,82.59
2023-01-12T22:58:51.742Z,82.42
2023-01-12T23:01:19.486Z,82.25
2023-01-12T23:03:46.126Z,82.20
2023-01-12T23:06:14.819Z,81.59
2023-01-12T23:08:43.433Z,81.50
2023-01-12T23:11:19.147Z,81.20
2023-01-12T23:13:46.529Z,81.83
2023-01-12T23:16:15.568Z,81.59
2023-01-12T23:18:44.493Z,81.81
2023-01-12T23:21:19.998Z,81.46
2023-01-12T23:23:52.866Z,81.79
2023-01-12T23:26:22.705Z,82.23
2023-01-12T23:28:52.696Z,82.25
2023-01-12T23:31:22.095Z,82.58
2023-01-12T23:33:49.277Z,82.68
2023-01-12T23:36:22.244Z,82.22
2023-01-12T23:38:53.575Z,81.67
2023-01-12T23:41:23.170Z,82.48
2023-01-12T23:43:51.041Z,82.33
2023-01-12T23:46:21.912Z,82.51
2023-01-12T23:48:49.252Z,82.37
2023-01-12T23:51:15.839Z,81.70
2023-01-12T23:53:42.326Z,81.47
2023-01-12T23:56:14.246Z,80.99
2023-01-12T23:58:41.144Z,81.60
